Time;durP1;ratioP1;P1;durP2;ratioP2;P2;SDS_P1;SDS_P2;PMS_P1;PMS_P2;Temp;Humidity;BMP_temperature;BMP_pressure;BME280_temperature;BME280_humidity;BME280_pressure;Samples;Min_cycle;Max_cycle;Signal;HPM_P1;HPM_P2
2023/09/04 00:00:29;;;;;;;2.43;1.97;;;27.30;47.20;;;;;;5037451;28;88616;-61
2023/09/04 00:02:57;;;;;;;3.43;1.83;;;27.30;47.20;;;;;;5035996;28;88835;-61
2023/09/04 00:05:25;;;;;;;2.47;1.90;;;27.30;47.30;;;;;;5039880;27;87590;-61
2023/09/04 00:07:53;;;;;;;2.23;1.87;;;27.30;47.30;;;;;;5039907;28;89708;-61
2023/09/04 00:10:24;;;;;;;4.37;1.93;;;27.30;47.30;;;;;;5040223;28;89088;-62
2023/09/04 00:12:52;;;;;;;2.17;1.60;;;27.30;47.30;;;;;;5036041;28;89968;-61
2023/09/04 00:15:20;;;;;;;3.43;2.57;;;27.30;47.30;;;;;;5036621;27;87961;-62
2023/09/04 00:17:49;;;;;;;2.70;1.73;;;27.30;47.40;;;;;;5037466;28;88681;-61
2023/09/04 00:20:17;;;;;;;2.30;2.00;;;27.30;47.50;;;;;;5031792;27;89127;-61
2023/09/04 00:22:45;;;;;;;2.43;1.40;;;27.30;47.40;;;;;;5039349;27;88695;-61
2023/09/04 00:25:14;;;;;;;2.50;1.33;;;27.30;47.40;;;;;;5038972;28;88244;-61
2023/09/04 00:27:43;;;;;;;2.33;1.90;;;27.30;47.40;;;;;;5039471;28;89770;-61
2023/09/04 00:30:12;;;;;;;2.07;1.77;;;27.30;47.40;;;;;;5033045;27;88873;-62
2023/09/04 00:32:40;;;;;;;3.10;1.67;;;27.30;47.40;;;;;;5033091;27;89072;-62
2023/09/04 00:35:12;;;;;;;3.37;1.50;;;27.30;47.50;;;;;;5036966;28;87610;-61
2023/09/04 00:37:41;;;;;;;2.43;1.70;;;27.30;47.50;;;;;;5039636;28;89514;-61
2023/09/04 00:40:10;;;;;;;3.20;1.47;;;27.30;47.50;;;;;;5036172;28;88860;-61
2023/09/04 00:42:38;;;;;;;3.13;1.60;;;27.30;47.50;;;;;;5039508;27;87532;-61
2023/09/04 00:45:11;;;;;;;1.63;1.33;;;27.20;47.50;;;;;;5038660;28;87628;-62
2023/09/04 00:47:40;;;;;;;1.20;1.10;;;27.20;47.50;;;;;;5040995;27;89652;-62
2023/09/04 00:50:10;;;;;;;3.13;1.60;;;27.20;47.50;;;;;;5039705;28;90058;-61
2023/09/04 00:52:38;;;;;;;2.10;1.17;;;27.20;47.50;;;;;;5042191;28;88425;-62
2023/09/04 00:55:07;;;;;;;1.43;1.03;;;27.20;47.50;;;;;;5034791;28;87376;-61
2023/09/04 00:57:35;;;;;;;1.63;1.33;;;27.20;47.50;;;;;;5043131;28;89632;-61
2023/09/04 01:00:09;;;;;;;1.67;1.30;;;27.20;47.60;;;;;;5042230;27;87290;-61
2023/09/04 01:02:39;;;;;;;1.67;1.30;;;27.20;47.60;;;;;;5043339;27;87693;-61
2023/09/04 01:05:08;;;;;;;1.20;1.10;;;27.20;47.60;;;;;;5040823;28;87687;-61
2023/09/04 01:07:37;;;;;;;1.40;1.00;;;27.20;47.60;;;;;;5043044;27;89769;-61
2023/09/04 01:10:08;;;;;;;3.00;1.13;;;27.10;47.60;;;;;;5042169;28;89219;-61
2023/09/04 01:12:40;;;;;;;1.73;1.00;;;27.10;47.60;;;;;;5042806;27;88764;-62
2023/09/04 01:15:09;;;;;;;1.80;1.40;;;27.20;47.70;;;;;;5042465;28;87837;-62
2023/09/04 01:17:39;;;;;;;5.13;1.27;;;27.10;47.60;;;;;;5042607;28;89807;-61
2023/09/04 01:20:23;;;;;;;2.37;1.30;;;27.10;47.70;;;;;;5042792;28;89055;-61
2023/09/04 01:22:51;;;;;;;2.70;1.30;;;27.10;47.70;;;;;;5039799;28;88788;-61
2023/09/04 01:25:19;;;;;;;2.07;1.00;;;27.10;47.70;;;;;;5043007;28;87429;-61
2023/09/04 01:27:51;;;;;;;2.10;1.03;;;27.10;47.70;;;;;;5039449;28;89689;-61
2023/09/04 01:30:22;;;;;;;2.43;1.50;;;27.10;47.70;;;;;;5041444;27;87666;-61
2023/09/04 01:32:52;;;;;;;1.20;1.10;;;27.10;47.70;;;;;;5039554;28;87395;-61
2023/09/04 01:35:22;;;;;;;1.87;1.13;;;27.10;47.70;;;;;;5042720;28;87386;-61
2023/09/04 01:37:50;;;;;;;1.67;1.20;;;27.10;47.70;;;;;;5039245;28;89419;-61
2023/09/04 01:40:19;;;;;;;1.10;0.90;;;27.00;47.60;;;;;;5041679;28;89697;-61
2023/09/04 01:42:47;;;;;;;1.70;0.90;;;27.10;47.70;;;;;;5038642;28;89653;-61
2023/09/04 01:45:15;;;;;;;1.87;1.10;;;27.00;47.70;;;;;;5041962;27;87499;-61
2023/09/04 01:47:43;;;;;;;1.13;1.03;;;27.10;47.70;;;;;;5042286;27;89563;-61
2023/09/04 01:50:11;;;;;;;1.70;1.20;;;27.10;47.70;;;;;;5041391;27;89266;-61
2023/09/04 01:52:41;;;;;;;1.00;0.97;;;27.00;47.70;;;;;;5042344;27;88818;-62
2023/09/04 01:55:09;;;;;;;1.10;0.90;;;27.00;47.70;;;;;;5038822;28;87673;-61
2023/09/04 01:57:38;;;;;;;1.23;0.87;;;27.10;47.70;;;;;;5041532;28;89597;-61
2023/09/04 02:00:08;;;;;;;1.30;1.00;;;27.00;47.70;;;;;;5041238;27;89090;-61
2023/09/04 02:02:36;;;;;;;1.03;0.83;;;27.00;47.80;;;;;;5041808;27;89969;-61
2023/09/04 02:05:05;;;;;;;0.70;0.70;;;27.00;47.70;;;;;;5041473;28;87851;-61
2023/09/04 02:07:33;;;;;;;1.33;1.10;;;27.00;47.70;;;;;;5041236;28;89653;-61
2023/09/04 02:10:03;;;;;;;0.80;0.70;;;27.00;47.70;;;;;;5041662;28;89055;-61
2023/09/04 02:12:32;;;;;;;0.83;0.80;;;27.00;47.70;;;;;;5039166;28;88951;-62
2023/09/04 02:15:00;;;;;;;1.80;0.90;;;27.00;47.80;;;;;;5042327;27;88129;-61
2023/09/04 02:17:28;;;;;;;0.90;0.80;;;27.00;47.80;;;;;;5039252;28;89641;-61
2023/09/04 02:19:56;;;;;;;1.13;1.00;;;27.00;47.80;;;;;;5041257;27;89020;-61
2023/09/04 02:22:25;;;;;;;1.40;1.10;;;26.90;47.80;;;;;;5041820;27;87544;-61
2023/09/04 02:24:53;;;;;;;1.47;1.30;;;26.90;47.80;;;;;;5042185;27;87614;-61
2023/09/04 02:27:23;;;;;;;2.17;1.00;;;26.90;48.40;;;;;;5041444;28;89616;-61
2023/09/04 02:29:51;;;;;;;3.77;1.53;;;27.00;47.80;;;;;;5029510;28;90118;-61
2023/09/04 02:32:19;;;;;;;1.40;0.90;;;26.90;47.80;;;;;;5041392;28;88678;-61
2023/09/04 02:34:47;;;;;;;1.10;1.00;;;26.90;47.80;;;;;;5041938;27;87628;-61
2023/09/04 02:37:16;;;;;;;1.07;0.97;;;26.90;47.80;;;;;;5038947;28;89483;-61
2023/09/04 02:39:44;;;;;;;2.23;0.90;;;26.90;47.80;;;;;;5040478;28;89412;-61
2023/09/04 02:42:13;;;;;;;1.87;1.23;;;26.90;47.80;;;;;;5040348;27;87352;-61
2023/09/04 02:44:43;;;;;;;1.40;1.23;;;26.90;47.80;;;;;;5040805;27;87530;-61
2023/09/04 02:47:11;;;;;;;1.80;1.33;;;26.90;47.80;;;;;;5040339;28;89702;-61
2023/09/04 02:49:39;;;;;;;2.20;1.23;;;26.80;47.80;;;;;;5041273;28;89216;-61
2023/09/04 02:52:08;;;;;;;3.47;1.63;;;26.80;47.80;;;;;;5036856;28;89003;-61
2023/09/04 02:54:36;;;;;;;3.63;1.57;;;26.80;47.80;;;;;;5038246;28;87978;-61
2023/09/04 02:57:05;;;;;;;2.37;1.30;;;26.80;47.80;;;;;;5040837;27;88347;-61
2023/09/04 02:59:35;;;;;;;2.87;2.30;;;26.80;47.80;;;;;;5040527;27;89038;-61
2023/09/04 03:02:05;;;;;;;2.03;1.57;;;26.80;47.90;;;;;;5041031;27;87653;-61
2023/09/04 03:04:33;;;;;;;2.03;1.80;;;26.80;47.80;;;;;;5041231;27;87451;-62
2023/09/04 03:07:02;;;;;;;2.33;1.63;;;26.80;47.90;;;;;;5040899;27;89710;-61
2023/09/04 03:09:31;;;;;;;4.63;1.90;;;26.80;47.90;;;;;;5041007;27;88032;-61
2023/09/04 03:12:00;;;;;;;3.13;1.77;;;26.80;47.90;;;;;;5039963;27;89012;-61
2023/09/04 03:14:28;;;;;;;2.17;1.60;;;26.80;47.90;;;;;;5040007;28;87631;-61
2023/09/04 03:16:56;;;;;;;3.00;1.80;;;26.80;47.90;;;;;;5038969;28;89645;-62
2023/09/04 03:19:25;;;;;;;3.90;1.97;;;26.80;47.90;;;;;;5040321;28;90097;-61
2023/09/04 03:21:54;;;;;;;3.17;1.70;;;26.80;47.90;;;;;;5035568;28;89698;-61
2023/09/04 03:24:23;;;;;;;2.33;1.70;;;26.80;47.90;;;;;;5038238;27;87834;-62
2023/09/04 03:26:52;;;;;;;3.07;1.70;;;26.80;47.90;;;;;;5036803;27;88685;-61
2023/09/04 03:29:20;;;;;;;2.90;1.87;;;26.80;47.90;;;;;;5037689;28;89266;-61
2023/09/04 03:31:49;;;;;;;2.50;1.80;;;26.80;47.90;;;;;;5037366;27;87696;-61
2023/09/04 03:34:18;;;;;;;2.27;1.60;;;26.70;47.90;;;;;;5038244;28;87935;-61
2023/09/04 03:36:48;;;;;;;3.10;2.00;;;26.70;47.90;;;;;;5038362;27;88550;-61
2023/09/04 03:39:17;;;;;;;3.33;1.67;;;26.70;47.90;;;;;;5037998;28;89134;-61
2023/09/04 03:41:45;;;;;;;3.20;2.20;;;26.70;47.90;;;;;;5037945;27;87723;-61
2023/09/04 03:44:14;;;;;;;2.60;1.87;;;26.70;47.90;;;;;;5037241;28;88579;-61
2023/09/04 03:46:42;;;;;;;3.63;1.57;;;26.70;47.90;;;;;;5037019;28;89871;-61
2023/09/04 03:49:12;;;;;;;2.47;1.93;;;26.70;47.90;;;;;;5037406;28;89158;-62
2023/09/04 03:51:42;;;;;;;3.50;1.60;;;26.70;47.90;;;;;;5037006;27;88080;-61
2023/09/04 03:54:12;;;;;;;1.73;1.40;;;26.70;47.90;;;;;;5037895;28;87614;-61
2023/09/04 03:56:40;;;;;;;2.93;1.50;;;26.70;47.90;;;;;;5037244;28;89683;-61
2023/09/04 03:59:09;;;;;;;3.90;2.07;;;26.70;47.90;;;;;;5037363;28;88135;-61
2023/09/04 04:01:37;;;;;;;1.73;1.30;;;26.70;47.90;;;;;;5038152;27;88666;-61
2023/09/04 04:04:06;;;;;;;2.73;1.30;;;26.70;47.90;;;;;;5038221;27;87643;-61
2023/09/04 04:06:34;;;;;;;2.10;1.63;;;26.70;48.00;;;;;;5037724;27;88421;-61
2023/09/04 04:09:03;;;;;;;2.00;1.50;;;26.70;48.00;;;;;;5036391;28;90067;-61
2023/09/04 04:11:33;;;;;;;1.60;1.37;;;26.70;48.00;;;;;;5037306;27;89872;-62
2023/09/04 04:14:01;;;;;;;1.93;1.73;;;26.70;48.00;;;;;;5035967;28;88235;-62
2023/09/04 04:16:32;;;;;;;2.73;1.47;;;26.60;47.90;;;;;;5032985;28;89605;-62
2023/09/04 04:19:01;;;;;;;2.13;1.77;;;26.60;47.90;;;;;;5039092;28;87856;-61
2023/09/04 04:21:29;;;;;;;2.00;1.67;;;26.60;47.90;;;;;;5040112;27;88793;-61
2023/09/04 04:23:57;;;;;;;2.17;1.63;;;26.60;47.90;;;;;;5039591;28;87567;-61
2023/09/04 04:26:26;;;;;;;1.60;1.37;;;26.60;47.90;;;;;;5040207;28;89744;-61
2023/09/04 04:28:55;;;;;;;1.50;1.40;;;26.60;47.90;;;;;;5039628;28;89249;-61
2023/09/04 04:31:24;;;;;;;2.10;1.87;;;26.60;47.90;;;;;;5039399;28;88835;-61
2023/09/04 04:33:52;;;;;;;2.50;1.50;;;26.60;47.90;;;;;;5039812;28;87965;-62
2023/09/04 04:36:20;;;;;;;2.93;1.30;;;26.60;47.90;;;;;;5039507;28;89727;-61
2023/09/04 04:38:49;;;;;;;1.73;1.40;;;26.60;48.00;;;;;;5040290;28;89174;-61
2023/09/04 04:41:17;;;;;;;2.43;1.40;;;26.60;47.90;;;;;;5040133;27;88554;-61
2023/09/04 04:43:45;;;;;;;2.37;1.43;;;26.60;48.00;;;;;;5039003;27;87481;-61
2023/09/04 04:46:17;;;;;;;1.20;1.10;;;26.60;48.00;;;;;;5040053;27;89633;-61
2023/09/04 04:48:45;;;;;;;2.70;1.27;;;26.60;48.00;;;;;;5040347;28;89324;-62
2023/09/04 04:51:14;;;;;;;3.33;1.57;;;26.60;48.00;;;;;;5040099;28;87727;-61
2023/09/04 04:53:42;;;;;;;1.53;1.10;;;26.60;48.00;;;;;;5040006;28;87650;-62
2023/09/04 04:56:10;;;;;;;2.30;1.33;;;26.60;48.00;;;;;;5040036;27;89779;-61
2023/09/04 04:58:39;;;;;;;0.90;0.90;;;26.60;48.00;;;;;;5039615;28;89982;-61
2023/09/04 05:01:07;;;;;;;1.90;1.50;;;26.60;48.00;;;;;;5039756;28;89812;-61
2023/09/04 05:03:37;;;;;;;1.70;1.30;;;26.60;48.00;;;;;;5039866;27;87495;-61
2023/09/04 05:06:07;;;;;;;1.57;1.20;;;26.60;48.00;;;;;;5039362;28;88605;-61
2023/09/04 05:08:35;;;;;;;1.67;1.57;;;26.60;48.00;;;;;;5039288;28;88078;-62
2023/09/04 05:11:04;;;;;;;0.97;0.97;;;26.60;48.00;;;;;;5039425;27;87659;-61
2023/09/04 05:13:33;;;;;;;1.90;1.07;;;26.60;48.00;;;;;;5039493;28;87596;-61
2023/09/04 05:16:03;;;;;;;1.40;1.30;;;26.60;48.00;;;;;;5039434;27;89600;-61
2023/09/04 05:18:32;;;;;;;2.47;1.37;;;26.60;48.00;;;;;;5040073;27;89019;-61
2023/09/04 05:21:05;;;;;;;1.67;1.30;;;26.60;48.00;;;;;;5039847;28;88862;-61
2023/09/04 05:23:33;;;;;;;1.60;1.17;;;26.60;48.00;;;;;;5038326;27;87880;-62
2023/09/04 05:26:02;;;;;;;2.40;1.20;;;26.60;47.90;;;;;;5038948;28;89674;-61
2023/09/04 05:28:30;;;;;;;1.87;1.20;;;26.60;47.90;;;;;;5039659;28;89082;-61
2023/09/04 05:31:02;;;;;;;1.43;1.20;;;26.60;47.90;;;;;;5040043;27;87566;-61
2023/09/04 05:33:31;;;;;;;1.77;1.30;;;26.60;47.90;;;;;;5043146;28;87528;-61
2023/09/04 05:36:00;;;;;;;1.50;1.20;;;26.70;47.90;;;;;;5042760;27;89755;-61
2023/09/04 05:38:30;;;;;;;2.30;1.50;;;26.70;47.90;;;;;;5042464;28;89144;-61
2023/09/04 05:40:59;;;;;;;3.33;1.00;;;26.70;47.90;;;;;;5042712;28;89174;-62
2023/09/04 05:43:27;;;;;;;1.70;1.37;;;26.70;47.90;;;;;;5032836;27;88230;-61
2023/09/04 05:45:55;;;;;;;1.70;1.40;;;26.60;47.80;;;;;;5032057;27;89287;-62
2023/09/04 05:48:23;;;;;;;2.43;1.30;;;26.60;47.80;;;;;;5021484;28;89071;-62
2023/09/04 05:50:52;;;;;;;1.60;1.20;;;26.60;47.80;;;;;;5039590;28;88723;-62
2023/09/04 05:53:23;;;;;;;1.20;1.00;;;26.60;47.80;;;;;;5042488;27;87688;-61
2023/09/04 05:56:09;;;;;;;1.77;1.20;;;26.60;47.80;;;;;;5041397;27;89849;-61
2023/09/04 05:58:43;;;;;;;2.57;1.40;;;26.60;47.80;;;;;;5035551;27;89031;-61
2023/09/04 06:01:11;;;;;;;1.40;1.27;;;26.70;47.90;;;;;;5022636;28;88504;-61
2023/09/04 06:03:40;;;;;;;3.60;1.60;;;26.70;47.80;;;;;;5021961;28;87344;-61
2023/09/04 06:06:09;;;;;;;1.50;1.40;;;26.70;47.80;;;;;;5040416;28;89682;-61
2023/09/04 06:08:37;;;;;;;2.10;1.60;;;26.70;47.80;;;;;;5041509;28;88121;-61
2023/09/04 06:11:07;;;;;;;1.83;1.20;;;26.70;47.70;;;;;;5021965;28;87580;-61
2023/09/04 06:13:35;;;;;;;1.70;1.33;;;26.70;47.70;;;;;;5021584;28;87905;-61
2023/09/04 06:16:03;;;;;;;1.47;1.27;;;26.70;47.60;;;;;;5021458;28;89638;-61
2023/09/04 06:18:32;;;;;;;1.50;1.20;;;26.70;47.60;;;;;;5021833;28;89328;-61
2023/09/04 06:21:00;;;;;;;1.47;1.27;;;26.70;47.60;;;;;;5020964;28;87703;-61
2023/09/04 06:23:28;;;;;;;2.77;1.47;;;26.70;47.60;;;;;;5021894;28;87579;-61
2023/09/04 06:25:56;;;;;;;1.73;1.23;;;26.70;47.60;;;;;;5021546;28;89806;-61
2023/09/04 06:28:26;;;;;;;1.43;1.33;;;26.70;47.60;;;;;;5021683;28;88006;-61
2023/09/04 06:30:54;;;;;;;2.30;1.20;;;26.70;47.60;;;;;;5021839;28;88562;-61
2023/09/04 06:33:23;;;;;;;2.73;1.40;;;26.70;47.50;;;;;;5021260;28;87493;-61
2023/09/04 06:35:51;;;;;;;1.53;1.30;;;26.70;47.50;;;;;;5021426;28;88610;-61
2023/09/04 06:38:20;;;;;;;2.03;1.10;;;26.70;47.50;;;;;;5020895;28;90197;-62
2023/09/04 06:40:50;;;;;;;1.43;1.20;;;26.70;47.50;;;;;;5021705;28;89735;-61
2023/09/04 06:43:18;;;;;;;1.90;1.40;;;26.70;47.50;;;;;;5021003;28;87703;-62
2023/09/04 06:45:48;;;;;;;1.40;1.30;;;26.70;47.50;;;;;;5021929;28;89695;-61
2023/09/04 06:48:16;;;;;;;1.50;1.27;;;26.70;47.50;;;;;;5022454;28;89019;-61
2023/09/04 06:50:45;;;;;;;2.27;1.63;;;26.70;47.50;;;;;;5021487;28;89099;-61
2023/09/04 06:53:14;;;;;;;2.33;1.30;;;26.80;47.50;;;;;;5021991;28;87313;-61
2023/09/04 06:55:42;;;;;;;2.13;1.50;;;26.70;47.40;;;;;;5021616;28;89582;-61
2023/09/04 06:58:11;;;;;;;1.00;1.00;;;26.70;47.40;;;;;;5021311;28;89211;-61
2023/09/04 07:00:39;;;;;;;1.27;1.10;;;26.70;47.40;;;;;;5021216;28;89173;-62
2023/09/04 07:03:08;;;;;;;2.90;1.27;;;26.80;47.50;;;;;;5020582;28;87959;-61
2023/09/04 07:05:37;;;;;;;1.97;1.30;;;26.70;47.40;;;;;;5020732;28;89883;-61
2023/09/04 07:08:06;;;;;;;2.63;1.13;;;26.70;47.40;;;;;;5021263;28;89075;-61
2023/09/04 07:10:35;;;;;;;2.00;1.20;;;26.70;47.40;;;;;;5020749;28;87279;-61
2023/09/04 07:13:03;;;;;;;1.40;1.20;;;26.80;47.40;;;;;;5020843;28;87634;-61
2023/09/04 07:15:32;;;;;;;1.77;1.40;;;26.80;47.40;;;;;;5020882;28;88854;-62
2023/09/04 07:18:01;;;;;;;1.40;1.30;;;26.70;47.40;;;;;;5020689;28;88935;-61
2023/09/04 07:20:30;;;;;;;1.23;1.10;;;26.70;47.40;;;;;;5020826;28;88868;-61
2023/09/04 07:22:59;;;;;;;1.57;1.20;;;26.70;47.40;;;;;;5021000;28;87409;-61
2023/09/04 07:25:47;;;;;;;1.77;1.20;;;26.70;47.40;;;;;;5023312;28;91475;-61
2023/09/04 07:28:15;;;;;;;1.53;1.10;;;26.70;47.40;;;;;;5040406;28;90096;-61
2023/09/04 07:30:44;;;;;;;3.07;1.20;;;26.70;47.40;;;;;;5040952;27;89854;-61
2023/09/04 07:33:12;;;;;;;1.80;1.23;;;26.70;47.50;;;;;;5041015;28;87642;-62
2023/09/04 07:35:42;;;;;;;3.93;1.77;;;26.70;47.50;;;;;;5040822;28;89812;-61
2023/09/04 07:38:11;;;;;;;1.67;1.40;;;26.70;47.50;;;;;;5040548;28;89048;-61
2023/09/04 07:40:40;;;;;;;1.40;1.30;;;26.70;47.50;;;;;;5040179;28;88730;-61
2023/09/04 07:43:08;;;;;;;2.20;1.70;;;26.70;47.50;;;;;;5040256;27;87505;-61
2023/09/04 07:45:36;;;;;;;2.83;1.50;;;26.70;47.50;;;;;;5025388;28;89588;-61
2023/09/04 07:48:05;;;;;;;1.63;1.30;;;26.70;47.50;;;;;;5020764;28;88289;-62
2023/09/04 07:50:34;;;;;;;1.57;1.30;;;26.70;47.50;;;;;;5020630;28;87745;-61
2023/09/04 07:53:04;;;;;;;1.57;1.13;;;26.70;47.50;;;;;;5019517;28;88582;-61
2023/09/04 07:55:32;;;;;;;2.40;1.70;;;26.70;47.60;;;;;;5018445;28;89576;-61
2023/09/04 07:58:01;;;;;;;1.27;1.17;;;26.60;47.50;;;;;;5020400;28;89224;-61
2023/09/04 08:00:29;;;;;;;1.77;1.23;;;26.60;47.50;;;;;;5019527;28;88915;-61
2023/09/04 08:02:57;;;;;;;1.53;1.10;;;26.60;47.50;;;;;;5020258;28;87219;-61
2023/09/04 08:05:26;;;;;;;1.93;1.20;;;26.60;47.60;;;;;;5020458;28;89564;-61
2023/09/04 08:07:54;;;;;;;2.17;1.33;;;26.60;47.60;;;;;;5020794;28;88819;-61
2023/09/04 08:10:24;;;;;;;1.27;1.10;;;26.60;47.60;;;;;;5021347;28;91786;-61
2023/09/04 08:12:52;;;;;;;1.80;1.63;;;26.60;47.60;;;;;;5020282;28;87621;-61
2023/09/04 08:15:21;;;;;;;1.90;1.40;;;26.60;47.60;;;;;;5019850;28;89614;-61
2023/09/04 08:17:49;;;;;;;2.60;1.50;;;26.60;47.60;;;;;;5019250;28;89019;-61
2023/09/04 08:20:18;;;;;;;2.90;1.20;;;26.60;47.60;;;;;;5019981;28;89829;-61
2023/09/04 08:22:48;;;;;;;1.40;1.30;;;26.60;47.70;;;;;;5019773;28;87572;-61
2023/09/04 08:25:16;;;;;;;2.53;1.60;;;26.60;47.70;;;;;;5019906;28;89606;-61
2023/09/04 08:27:46;;;;;;;1.57;1.23;;;26.60;47.70;;;;;;5020162;28;89495;-61
2023/09/04 08:30:14;;;;;;;1.50;1.23;;;26.60;47.70;;;;;;5019251;28;89112;-61
2023/09/04 08:32:44;;;;;;;2.10;1.43;;;26.60;47.70;;;;;;5020167;28;87453;-61
2023/09/04 08:35:12;;;;;;;2.90;1.97;;;26.60;47.70;;;;;;5020212;28;89616;-61
2023/09/04 08:37:40;;;;;;;1.57;1.13;;;26.60;47.70;;;;;;5019320;28;88122;-61
2023/09/04 08:40:09;;;;;;;1.23;1.13;;;26.60;47.80;;;;;;5019920;28;88754;-61
2023/09/04 08:42:38;;;;;;;2.00;1.40;;;26.60;47.80;;;;;;5019640;28;87690;-61
2023/09/04 08:45:08;;;;;;;2.17;1.30;;;26.60;47.80;;;;;;5019485;28;88420;-61
2023/09/04 08:47:39;;;;;;;1.43;1.20;;;26.60;47.80;;;;;;5018170;28;89079;-61
2023/09/04 08:50:08;;;;;;;4.70;1.27;;;26.60;47.80;;;;;;5019458;28;88590;-61
2023/09/04 08:52:37;;;;;;;1.57;1.47;;;26.60;47.80;;;;;;5027435;28;87664;-61
2023/09/04 08:55:06;;;;;;;1.67;1.43;;;26.60;47.80;;;;;;5039582;27;89623;-61
2023/09/04 08:57:34;;;;;;;1.63;1.37;;;26.60;47.90;;;;;;5039523;27;89287;-61
2023/09/04 09:00:05;;;;;;;4.80;1.70;;;26.60;47.90;;;;;;5038627;28;87900;-61
2023/09/04 09:02:35;;;;;;;1.57;1.47;;;26.60;47.90;;;;;;5039776;28;87558;-61
2023/09/04 09:05:04;;;;;;;2.87;1.80;;;26.60;47.90;;;;;;5029069;28;88548;-62
2023/09/04 09:07:33;;;;;;;1.57;1.47;;;26.60;48.00;;;;;;5021926;28;90185;-62
2023/09/04 09:10:03;;;;;;;2.47;1.60;;;26.60;48.00;;;;;;5022633;28;89702;-61
2023/09/04 09:12:32;;;;;;;1.70;1.50;;;26.60;48.00;;;;;;5022609;28;87542;-61
2023/09/04 09:15:00;;;;;;;2.30;1.63;;;26.60;48.00;;;;;;5022399;28;88509;-61
2023/09/04 09:17:28;;;;;;;1.87;1.33;;;26.60;48.00;;;;;;5022537;28;89138;-62
2023/09/04 09:19:58;;;;;;;2.37;1.57;;;26.60;48.00;;;;;;5022449;28;87983;-61
2023/09/04 09:22:26;;;;;;;3.70;1.80;;;26.60;48.00;;;;;;5023316;28;87515;-61
2023/09/04 09:24:56;;;;;;;1.80;1.60;;;26.60;48.40;;;;;;5023134;28;89931;-61
2023/09/04 09:27:25;;;;;;;1.30;1.20;;;26.60;48.20;;;;;;5022520;28;89098;-61
2023/09/04 09:29:55;;;;;;;2.00;1.50;;;26.60;48.20;;;;;;5022342;28;89394;-61
2023/09/04 09:32:23;;;;;;;1.47;1.37;;;26.60;48.20;;;;;;5022415;28;87870;-61
2023/09/04 09:34:52;;;;;;;1.20;1.10;;;26.60;48.20;;;;;;5022965;28;87447;-61
2023/09/04 09:37:23;;;;;;;1.97;1.50;;;26.60;48.20;;;;;;5022815;28;89119;-61
2023/09/04 09:39:52;;;;;;;1.97;1.50;;;26.60;48.30;;;;;;5022841;28;89082;-61
2023/09/04 09:42:21;;;;;;;2.73;2.00;;;26.60;48.30;;;;;;5038223;28;87630;-62
2023/09/04 09:44:49;;;;;;;2.17;1.73;;;26.60;48.30;;;;;;5042015;27;89854;-61
2023/09/04 09:47:18;;;;;;;2.17;1.57;;;26.60;48.40;;;;;;5042087;28;89272;-61
2023/09/04 09:49:46;;;;;;;1.73;1.20;;;26.60;48.40;;;;;;5042909;28;88747;-61
2023/09/04 09:52:15;;;;;;;1.43;1.30;;;26.60;48.40;;;;;;5042787;27;87724;-61
2023/09/04 09:54:45;;;;;;;2.33;1.63;;;26.60;48.40;;;;;;5042492;28;89653;-62
2023/09/04 09:57:14;;;;;;;2.20;1.43;;;26.60;49.10;;;;;;5042060;28;90130;-62
2023/09/04 09:59:44;;;;;;;5.10;1.73;;;26.60;48.40;;;;;;5042204;28;89750;-61
2023/09/04 10:02:21;;;;;;;2.27;1.47;;;26.70;48.50;;;;;;5041394;27;87538;-61
2023/09/04 10:04:50;;;;;;;2.47;1.47;;;26.70;48.50;;;;;;5042233;27;88461;-61
2023/09/04 10:07:21;;;;;;;2.27;2.07;;;26.70;48.50;;;;;;5041836;28;89226;-61
2023/09/04 10:09:59;;;;;;;2.67;2.10;;;26.70;48.70;;;;;;5042319;28;88792;-61
2023/09/04 10:12:29;;;;;;;2.43;1.80;;;26.70;48.70;;;;;;5042015;28;87341;-61
2023/09/04 10:14:58;;;;;;;3.23;1.80;;;26.70;48.70;;;;;;5042065;27;88548;-61
2023/09/04 10:17:32;;;;;;;5.80;1.60;;;26.70;48.70;;;;;;5041099;27;89031;-61
2023/09/04 10:20:01;;;;;;;2.63;1.97;;;26.70;48.70;;;;;;5041992;28;89029;-61
2023/09/04 10:22:34;;;;;;;2.17;1.93;;;26.70;49.40;;;;;;5041709;28;87940;-61
2023/09/04 10:25:09;;;;;;;1.70;1.47;;;26.70;48.80;;;;;;5041953;28;89662;-61
2023/09/04 10:27:45;;;;;;;1.90;1.70;;;26.70;48.80;;;;;;5041073;28;88904;-61
2023/09/04 10:30:17;;;;;;;2.17;1.60;;;26.70;48.80;;;;;;5041868;28;88755;-61
2023/09/04 10:32:46;;;;;;;3.07;1.70;;;26.70;48.80;;;;;;5041802;28;87554;-61
2023/09/04 10:35:15;;;;;;;2.90;2.10;;;26.70;48.90;;;;;;5041816;27;89745;-61
2023/09/04 10:37:43;;;;;;;3.10;2.33;;;26.70;48.90;;;;;;5042195;27;89178;-61
2023/09/04 10:40:13;;;;;;;3.53;2.30;;;26.80;49.00;;;;;;5041908;28;87711;-61
2023/09/04 10:42:42;;;;;;;2.67;1.83;;;26.70;49.00;;;;;;5041191;28;87650;-61
2023/09/04 10:45:13;;;;;;;2.67;1.70;;;26.80;49.70;;;;;;5041009;27;89586;-61
2023/09/04 10:47:46;;;;;;;2.37;1.63;;;26.70;49.00;;;;;;5041440;28;88977;-61
2023/09/04 10:50:27;;;;;;;3.07;1.97;;;26.80;49.10;;;;;;5041211;28;87469;-61
2023/09/04 10:52:55;;;;;;;2.43;1.70;;;26.80;49.20;;;;;;5041169;28;87473;-61
2023/09/04 10:55:25;;;;;;;2.97;1.97;;;26.80;49.10;;;;;;5041255;28;87367;-61
2023/09/04 10:57:55;;;;;;;2.27;1.60;;;26.80;49.20;;;;;;5041729;28;88088;-61
2023/09/04 11:00:27;;;;;;;2.73;1.77;;;26.80;49.20;;;;;;5040699;27;88818;-62
2023/09/04 11:02:55;;;;;;;2.90;2.00;;;26.80;49.20;;;;;;5040529;27;87607;-61
2023/09/04 11:05:24;;;;;;;2.40;1.60;;;26.80;49.30;;;;;;5040562;27;89765;-61
2023/09/04 11:07:55;;;;;;;2.20;1.77;;;26.80;49.20;;;;;;5041221;28;88228;-61
2023/09/04 11:10:38;;;;;;;1.60;1.50;;;26.90;49.30;;;;;;5040941;28;88756;-61
2023/09/04 11:13:07;;;;;;;3.77;1.80;;;26.80;49.30;;;;;;5040909;28;87981;-61
2023/09/04 11:15:35;;;;;;;1.87;1.20;;;26.90;49.30;;;;;;5040751;28;89980;-61
2023/09/04 11:18:04;;;;;;;3.10;1.90;;;26.90;49.30;;;;;;5040884;28;89093;-61
2023/09/04 11:20:44;;;;;;;3.50;2.00;;;26.90;49.40;;;;;;5040791;27;88888;-61
2023/09/04 11:23:12;;;;;;;1.97;1.77;;;26.90;49.40;;;;;;5040736;27;87672;-62
2023/09/04 11:25:46;;;;;;;2.23;1.80;;;26.90;49.40;;;;;;5040726;28;89631;-62
2023/09/04 11:28:14;;;;;;;3.60;1.47;;;26.90;49.40;;;;;;5040941;27;88054;-61
2023/09/04 11:30:43;;;;;;;3.07;1.83;;;26.90;49.30;;;;;;5040592;27;88580;-61
2023/09/04 11:33:13;;;;;;;3.03;2.07;;;26.90;49.30;;;;;;5041001;27;87534;-61
2023/09/04 11:35:41;;;;;;;2.17;1.77;;;26.90;49.40;;;;;;5041050;28;89653;-61
2023/09/04 11:38:24;;;;;;;2.63;1.90;;;26.90;49.30;;;;;;5040459;28;88945;-61
2023/09/04 11:40:53;;;;;;;1.33;1.20;;;27.00;49.40;;;;;;5040732;27;88901;-62
2023/09/04 11:43:23;;;;;;;1.77;1.00;;;27.00;49.40;;;;;;5040848;28;87597;-61
2023/09/04 11:45:55;;;;;;;1.87;1.60;;;27.00;49.40;;;;;;5040558;28;89622;-61
2023/09/04 11:48:24;;;;;;;1.70;1.27;;;27.00;49.40;;;;;;5040703;28;89064;-61
2023/09/04 11:50:53;;;;;;;1.80;1.13;;;27.00;49.30;;;;;;5040078;27;88838;-61
2023/09/04 11:53:21;;;;;;;1.47;1.37;;;27.10;49.40;;;;;;5039929;28;87517;-61
2023/09/04 11:55:53;;;;;;;2.37;1.40;;;27.10;49.40;;;;;;5040278;28;89772;-61
2023/09/04 11:58:22;;;;;;;1.57;1.47;;;27.10;49.30;;;;;;5040308;27;88670;-61
2023/09/04 12:00:51;;;;;;;2.83;1.50;;;27.10;49.30;;;;;;5040916;27;87299;-61
2023/09/04 12:03:19;;;;;;;3.33;1.60;;;27.10;49.30;;;;;;5040065;27;88541;-61
2023/09/04 12:05:51;;;;;;;2.50;1.63;;;27.10;49.20;;;;;;5040190;28;89689;-62
2023/09/04 12:08:19;;;;;;;3.47;1.83;;;27.10;49.20;;;;;;5039597;28;89116;-61
2023/09/04 12:10:48;;;;;;;1.73;1.43;;;27.10;49.20;;;;;;5040256;28;87690;-62
2023/09/04 12:13:18;;;;;;;1.70;1.60;;;27.10;49.10;;;;;;5040179;28;87641;-62
2023/09/04 12:15:47;;;;;;;2.60;1.50;;;27.10;49.10;;;;;;5039994;27;89707;-62
2023/09/04 12:18:16;;;;;;;2.17;1.43;;;27.20;49.10;;;;;;5040341;28;88239;-61
2023/09/04 12:20:45;;;;;;;3.20;1.90;;;27.20;49.10;;;;;;5040778;27;88764;-62
2023/09/04 12:23:13;;;;;;;2.47;1.20;;;27.20;49.10;;;;;;5040378;28;87509;-61
2023/09/04 12:25:42;;;;;;;1.97;1.30;;;27.20;49.00;;;;;;5039741;28;89698;-61
2023/09/04 12:28:10;;;;;;;2.67;1.60;;;27.30;49.10;;;;;;5039758;28;88009;-61
2023/09/04 12:30:44;;;;;;;1.13;1.00;;;27.30;49.00;;;;;;5039586;28;89688;-62
2023/09/04 12:33:12;;;;;;;2.13;1.67;;;27.30;49.00;;;;;;5039852;28;87641;-61
2023/09/04 12:35:40;;;;;;;1.53;1.40;;;27.30;49.00;;;;;;5039823;27;89717;-65
2023/09/04 12:38:10;;;;;;;1.60;1.47;;;27.30;48.90;;;;;;5039634;27;89322;-64
2023/09/04 12:40:38;;;;;;;2.27;1.70;;;27.40;48.80;;;;;;5040963;27;89036;-65
2023/09/04 12:43:07;;;;;;;0.80;0.80;;;27.40;48.70;;;;;;5043382;28;87882;-65
2023/09/04 12:45:35;;;;;;;1.40;1.30;;;27.50;48.70;;;;;;5043256;28;90007;-65
2023/09/04 12:48:10;;;;;;;1.30;1.10;;;27.60;48.70;;;;;;5043745;28;89060;-64
2023/09/04 12:50:38;;;;;;;2.23;1.40;;;27.60;48.60;;;;;;5042553;27;88852;-65
2023/09/04 12:53:06;;;;;;;1.30;1.20;;;27.70;48.60;;;;;;5043239;28;87753;-65
2023/09/04 12:55:34;;;;;;;1.00;0.90;;;27.80;49.30;;;;;;5043095;28;89461;-65
2023/09/04 12:58:07;;;;;;;3.20;1.57;;;27.80;48.60;;;;;;5042669;28;89130;-65